Time;durP1;ratioP1;P1;durP2;ratioP2;P2;SDS_P1;SDS_P2;PMS_P1;PMS_P2;Temp;Humidity;BMP_temperature;BMP_pressure;BME280_temperature;BME280_humidity;BME280_pressure;Samples;Min_cycle;Max_cycle;Signal;HPM_P1;HPM_P2
2021/03/27 00:02:31;;;;;;;6.60;5.73;;;8.50;99.90;;;;;;5025974;28;20766;-73
2021/03/27 00:05:12;;;;;;;6.87;5.83;;;8.50;99.90;;;;;;5019989;28;20428;-73
2021/03/27 00:08:00;;;;;;;6.47;5.63;;;8.40;99.90;;;;;;5022398;28;21960;-73
2021/03/27 00:10:42;;;;;;;6.10;5.50;;;8.30;99.90;;;;;;5021062;28;20428;-73
2021/03/27 00:13:40;;;;;;;8.60;6.20;;;8.20;99.90;;;;;;5023410;28;20433;-73
2021/03/27 00:16:35;;;;;;;7.20;5.47;;;8.20;99.90;;;;;;5019358;28;20436;-73
2021/03/27 00:19:09;;;;;;;7.37;6.60;;;8.10;99.90;;;;;;5020028;28;20467;-73
2021/03/27 00:21:50;;;;;;;7.60;5.50;;;8.00;99.90;;;;;;5019778;28;21014;-73
2021/03/27 00:24:22;;;;;;;6.90;6.20;;;7.90;99.90;;;;;;5020676;28;20830;-73
2021/03/27 00:27:02;;;;;;;9.30;7.23;;;7.90;99.90;;;;;;5019471;28;20990;-73
2021/03/27 00:29:42;;;;;;;7.00;6.30;;;7.90;99.90;;;;;;5021042;28;20443;-73
2021/03/27 00:32:12;;;;;;;7.00;6.30;;;7.90;99.90;;;;;;5020475;28;20770;-73
2021/03/27 00:34:50;;;;;;;7.57;6.20;;;7.90;99.90;;;;;;5022436;28;20463;-73
2021/03/27 00:37:21;;;;;;;8.50;6.10;;;7.80;99.90;;;;;;5022358;28;20456;-73
2021/03/27 00:39:57;;;;;;;8.70;7.00;;;7.90;99.90;;;;;;5022865;28;21204;-74
2021/03/27 00:42:31;;;;;;;7.13;5.50;;;8.00;99.90;;;;;;5022298;28;20467;-73
2021/03/27 00:45:02;;;;;;;7.87;5.80;;;7.90;99.90;;;;;;5021994;28;20431;-73
2021/03/27 00:47:31;;;;;;;6.77;6.17;;;7.90;99.90;;;;;;5023249;28;20962;-73
2021/03/27 00:50:17;;;;;;;10.97;5.97;;;7.80;99.90;;;;;;5020400;28;20984;-73
2021/03/27 00:52:50;;;;;;;7.73;6.00;;;7.80;99.90;;;;;;5009909;28;20832;-74
2021/03/27 00:55:23;;;;;;;7.43;6.30;;;7.80;99.90;;;;;;5019448;28;20468;-73
2021/03/27 00:57:58;;;;;;;13.80;8.90;;;7.80;99.90;;;;;;5005733;28;20429;-73
2021/03/27 01:00:37;;;;;;;11.43;8.27;;;7.80;99.90;;;;;;5019266;28;20455;-73
2021/03/27 01:03:11;;;;;;;9.27;7.33;;;7.80;99.90;;;;;;5019088;28;20428;-73
2021/03/27 01:05:37;;;;;;;11.13;6.60;;;7.90;99.90;;;;;;5018414;28;20428;-73
2021/03/27 01:08:07;;;;;;;9.60;6.80;;;7.90;99.90;;;;;;5021875;28;20445;-73
2021/03/27 01:10:49;;;;;;;9.47;6.70;;;7.90;99.90;;;;;;5020204;28;20901;-73
2021/03/27 01:13:49;;;;;;;7.47;6.67;;;7.90;99.90;;;;;;5020552;28;20436;-73
2021/03/27 01:16:20;;;;;;;8.03;6.50;;;7.90;99.90;;;;;;4987348;28;20472;-73
2021/03/27 01:18:50;;;;;;;8.90;7.10;;;8.00;99.90;;;;;;5023346;28;20424;-73
2021/03/27 01:21:30;;;;;;;7.77;6.80;;;7.90;99.90;;;;;;5022155;28;20485;-73
2021/03/27 01:23:58;;;;;;;8.20;6.17;;;7.90;99.90;;;;;;5022840;28;20789;-73
2021/03/27 01:26:38;;;;;;;8.47;6.73;;;7.90;99.90;;;;;;5022660;28;20800;-73
2021/03/27 01:29:06;;;;;;;7.83;6.73;;;7.90;99.90;;;;;;5021550;28;20436;-73
2021/03/27 01:32:07;;;;;;;7.37;6.53;;;7.90;99.90;;;;;;5019770;28;20578;-73
2021/03/27 01:34:42;;;;;;;9.93;7.10;;;7.90;99.90;;;;;;4944747;29;20428;-73
2021/03/27 01:37:21;;;;;;;8.17;7.37;;;7.90;99.90;;;;;;5011537;28;20488;-72
2021/03/27 01:40:05;;;;;;;10.23;7.40;;;7.90;99.90;;;;;;5022776;28;21009;-72
2021/03/27 01:42:45;;;;;;;9.37;7.67;;;7.90;99.90;;;;;;5023555;28;20428;-73
2021/03/27 01:45:29;;;;;;;7.10;6.40;;;7.90;99.90;;;;;;5022562;28;20437;-72
2021/03/27 01:48:24;;;;;;;10.67;7.70;;;7.90;99.90;;;;;;5020531;28;20490;-72
2021/03/27 01:50:57;;;;;;;7.47;6.43;;;7.90;99.90;;;;;;5004166;28;20446;-73
2021/03/27 01:53:38;;;;;;;8.03;6.30;;;7.90;99.90;;;;;;5020573;28;20448;-73
2021/03/27 01:56:25;;;;;;;7.33;6.23;;;7.90;99.90;;;;;;5021458;28;20520;-75
2021/03/27 01:59:12;;;;;;;7.57;6.10;;;7.90;99.90;;;;;;5021810;28;20433;-73
2021/03/27 02:01:52;;;;;;;9.97;8.00;;;7.90;99.90;;;;;;5020690;28;20472;-72
2021/03/27 02:04:28;;;;;;;7.13;6.37;;;7.90;99.90;;;;;;5022784;28;20482;-73
2021/03/27 02:07:14;;;;;;;8.83;7.03;;;7.90;99.90;;;;;;5023326;28;20909;-73
2021/03/27 02:10:17;;;;;;;6.53;5.93;;;7.80;99.90;;;;;;5020969;28;20425;-73
2021/03/27 02:13:12;;;;;;;10.43;7.10;;;7.80;99.90;;;;;;5020236;28;20436;-73
2021/03/27 02:15:41;;;;;;;7.40;6.70;;;7.80;99.90;;;;;;5018134;28;20428;-73
2021/03/27 02:18:28;;;;;;;14.33;7.70;;;7.80;99.90;;;;;;5019695;28;20863;-73
2021/03/27 02:21:26;;;;;;;9.60;6.50;;;7.80;99.90;;;;;;5021539;28;20949;-73
2021/03/27 02:24:28;;;;;;;9.37;7.10;;;7.80;99.90;;;;;;5021027;28;20443;-72
2021/03/27 02:27:07;;;;;;;7.40;6.20;;;7.80;99.90;;;;;;5020763;28;20416;-73
2021/03/27 02:29:51;;;;;;;7.60;6.17;;;7.80;99.90;;;;;;5020698;28;20432;-73
2021/03/27 02:32:21;;;;;;;8.87;6.83;;;7.80;99.90;;;;;;5020376;28;20579;-73
2021/03/27 02:35:05;;;;;;;10.37;7.17;;;7.80;99.90;;;;;;5019686;28;20444;-72
2021/03/27 02:38:05;;;;;;;10.57;7.47;;;7.90;99.90;;;;;;5017370;28;20575;-73
2021/03/27 02:40:36;;;;;;;6.80;6.07;;;8.00;99.90;;;;;;5019933;28;20463;-73
2021/03/27 02:43:19;;;;;;;7.83;6.40;;;8.10;99.90;;;;;;5021531;28;20429;-73
2021/03/27 02:45:57;;;;;;;8.50;6.23;;;8.20;99.90;;;;;;5021390;28;20775;-73
2021/03/27 02:48:41;;;;;;;10.63;6.73;;;8.20;99.90;;;;;;5021172;28;20465;-73
2021/03/27 02:51:27;;;;;;;8.17;7.37;;;8.30;99.90;;;;;;5019001;28;20433;-73
2021/03/27 02:54:23;;;;;;;8.90;7.20;;;8.30;99.90;;;;;;5021698;28;20447;-73
2021/03/27 02:57:06;;;;;;;10.50;6.50;;;8.40;99.90;;;;;;5018950;28;20443;-73
2021/03/27 02:59:51;;;;;;;9.60;6.13;;;8.50;99.90;;;;;;5002832;28;20444;-73
2021/03/27 03:02:51;;;;;;;8.13;6.63;;;8.50;99.90;;;;;;5022007;28;20471;-73
2021/03/27 03:05:53;;;;;;;5.60;5.10;;;8.60;99.90;;;;;;5021419;28;20421;-73
2021/03/27 03:08:29;;;;;;;6.60;5.60;;;8.60;99.90;;;;;;5019982;28;21409;-72
2021/03/27 03:11:24;;;;;;;6.07;5.47;;;8.70;99.90;;;;;;5019559;28;20432;-73
2021/03/27 03:14:21;;;;;;;9.20;5.83;;;8.70;99.90;;;;;;5011446;28;20450;-72
2021/03/27 03:17:26;;;;;;;8.03;5.53;;;8.70;99.90;;;;;;5022124;28;20922;-73
2021/03/27 03:20:04;;;;;;;5.80;5.03;;;8.80;99.90;;;;;;5019266;28;20460;-73
2021/03/27 03:22:36;;;;;;;8.73;5.57;;;8.80;99.90;;;;;;5022273;28;20765;-73
2021/03/27 03:25:11;;;;;;;6.20;5.10;;;8.80;99.90;;;;;;5015946;28;20425;-73
2021/03/27 03:27:58;;;;;;;5.83;5.07;;;8.80;99.90;;;;;;5017404;28;20988;-73
2021/03/27 03:30:34;;;;;;;6.00;5.40;;;8.90;99.90;;;;;;5018756;28;20441;-73
2021/03/27 03:33:21;;;;;;;7.90;5.50;;;8.90;99.90;;;;;;5022163;28;20848;-73
2021/03/27 03:35:59;;;;;;;7.07;4.97;;;9.00;99.90;;;;;;5018147;28;20437;-73
2021/03/27 03:38:53;;;;;;;7.80;6.17;;;9.10;99.90;;;;;;5020081;28;20475;-73
2021/03/27 03:41:51;;;;;;;6.43;5.50;;;9.30;99.90;;;;;;5019906;28;20874;-72
2021/03/27 03:44:31;;;;;;;6.40;5.73;;;9.30;99.90;;;;;;5019891;28;20940;-73
2021/03/27 03:47:39;;;;;;;8.33;6.90;;;9.50;99.90;;;;;;5018859;28;20444;-73
2021/03/27 03:50:17;;;;;;;13.80;7.60;;;9.60;99.90;;;;;;5019804;28;20511;-73
2021/03/27 03:53:09;;;;;;;9.73;7.80;;;9.70;99.90;;;;;;5019584;28;20440;-72
2021/03/27 03:56:12;;;;;;;11.97;7.50;;;9.60;99.90;;;;;;5015356;28;20483;-72
2021/03/27 03:59:01;;;;;;;15.80;7.17;;;9.50;99.90;;;;;;4986389;28;20766;-72
2021/03/27 04:01:45;;;;;;;10.03;6.53;;;9.40;99.90;;;;;;4983166;28;20477;-72
2021/03/27 04:04:20;;;;;;;8.13;6.87;;;9.30;99.90;;;;;;5020941;28;20448;-72
2021/03/27 04:06:50;;;;;;;7.63;6.83;;;9.10;99.90;;;;;;5019073;28;20853;-72
2021/03/27 04:09:23;;;;;;;7.17;6.47;;;8.90;99.90;;;;;;5021041;28;20490;-72
2021/03/27 04:12:07;;;;;;;6.73;5.70;;;8.60;99.90;;;;;;5020921;28;20615;-72
2021/03/27 04:14:51;;;;;;;5.87;5.30;;;8.50;99.90;;;;;;5020690;28;20769;-72
2021/03/27 04:17:39;;;;;;;9.70;5.50;;;8.20;99.90;;;;;;5020055;28;20441;-71
2021/03/27 04:20:13;;;;;;;5.40;4.90;;;8.10;99.90;;;;;;5020838;28;20495;-71
2021/03/27 04:22:55;;;;;;;5.00;4.50;;;7.90;99.90;;;;;;5025345;28;20432;-71
2021/03/27 04:25:42;;;;;;;3.10;2.90;;;7.80;99.90;;;;;;5022061;28;20760;-71
2021/03/27 04:28:21;;;;;;;3.30;2.70;;;7.50;99.90;;;;;;5024466;28;20444;-72
2021/03/27 04:31:15;;;;;;;1.63;1.37;;;7.30;99.90;;;;;;5023163;28;20517;-71
2021/03/27 04:33:47;;;;;;;1.37;1.33;;;7.00;99.90;;;;;;5024515;28;20447;-73
2021/03/27 04:36:29;;;;;;;1.80;1.70;;;6.90;99.90;;;;;;5004401;28;20456;-74
2021/03/27 04:39:04;;;;;;;1.43;1.33;;;6.90;99.90;;;;;;5023358;28;20918;-73
2021/03/27 04:41:47;;;;;;;1.80;1.70;;;6.80;99.90;;;;;;5022652;28;20444;-73
2021/03/27 04:44:33;;;;;;;2.40;2.30;;;6.80;99.90;;;;;;5023762;28;20938;-73
2021/03/27 04:47:11;;;;;;;2.17;1.97;;;6.60;99.90;;;;;;5020731;28;20460;-74
2021/03/27 04:50:12;;;;;;;1.83;1.60;;;6.40;99.90;;;;;;5020051;28;20435;-74
2021/03/27 04:53:10;;;;;;;1.93;1.50;;;6.20;99.90;;;;;;5023436;28;20428;-73
2021/03/27 04:55:51;;;;;;;1.40;1.30;;;6.00;99.90;;;;;;5019799;28;20444;-73
2021/03/27 04:58:37;;;;;;;1.57;1.47;;;5.90;99.90;;;;;;5019333;28;20480;-73
2021/03/27 05:01:39;;;;;;;1.30;1.30;;;5.90;99.90;;;;;;5024150;28;20558;-73
2021/03/27 05:04:32;;;;;;;2.30;1.53;;;5.90;99.90;;;;;;5023305;28;20425;-73
2021/03/27 05:07:09;;;;;;;1.83;1.50;;;5.90;99.90;;;;;;5024325;28;20434;-73
2021/03/27 05:09:59;;;;;;;3.93;1.70;;;5.90;99.90;;;;;;5021099;28;20435;-73
2021/03/27 05:12:34;;;;;;;2.17;1.77;;;5.90;99.90;;;;;;5022658;28;20509;-73
2021/03/27 05:15:24;;;;;;;2.23;2.03;;;5.90;99.90;;;;;;5022629;28;20890;-74
2021/03/27 05:18:18;;;;;;;1.67;1.57;;;6.00;99.90;;;;;;4988632;28;20511;-73
2021/03/27 05:20:46;;;;;;;2.50;2.30;;;6.00;99.90;;;;;;5022673;28;21043;-73
2021/03/27 05:23:52;;;;;;;2.90;2.70;;;6.00;99.90;;;;;;5023541;28;20440;-73
2021/03/27 05:26:32;;;;;;;2.37;2.20;;;6.00;99.90;;;;;;5020797;28;20490;-73
2021/03/27 05:29:30;;;;;;;2.73;2.53;;;6.00;99.90;;;;;;5022648;28;20424;-73
2021/03/27 05:32:12;;;;;;;2.27;2.17;;;6.00;99.90;;;;;;5006941;28;20772;-74
2021/03/27 05:34:42;;;;;;;2.87;2.70;;;6.00;99.90;;;;;;5022174;28;20914;-74
2021/03/27 05:37:40;;;;;;;2.90;2.60;;;6.00;99.90;;;;;;5023136;28;20436;-73
2021/03/27 05:40:24;;;;;;;2.70;2.50;;;6.00;99.90;;;;;;5020111;28;20464;-73
2021/03/27 05:43:08;;;;;;;2.77;2.57;;;6.00;99.90;;;;;;5023107;28;20425;-73
2021/03/27 05:45:55;;;;;;;2.43;2.33;;;6.00;99.90;;;;;;5019806;28;20460;-73
2021/03/27 05:48:58;;;;;;;5.70;3.33;;;6.00;99.90;;;;;;5022776;28;20520;-74
2021/03/27 05:51:57;;;;;;;3.23;2.90;;;6.00;99.90;;;;;;5018685;28;20518;-74
2021/03/27 05:54:47;;;;;;;3.37;3.17;;;6.00;99.90;;;;;;5020084;28;20464;-74
2021/03/27 05:58:03;;;;;;;4.43;3.20;;;6.00;99.90;;;;;;5021065;28;20781;-73
2021/03/27 06:00:37;;;;;;;3.50;3.30;;;6.00;99.90;;;;;;4985386;28;20893;-73
2021/03/27 06:03:31;;;;;;;4.20;3.87;;;6.10;99.90;;;;;;5020825;28;20992;-73
2021/03/27 06:06:18;;;;;;;4.77;4.27;;;6.10;99.90;;;;;;5020850;28;20771;-74
2021/03/27 06:09:00;;;;;;;8.07;5.70;;;6.10;99.90;;;;;;5020964;28;20470;-73
2021/03/27 06:11:56;;;;;;;8.03;6.10;;;6.10;99.90;;;;;;5021197;28;20981;-73
2021/03/27 06:14:34;;;;;;;11.97;6.33;;;6.10;99.90;;;;;;5021136;28;20435;-73
2021/03/27 06:17:15;;;;;;;8.73;6.73;;;6.10;99.90;;;;;;5021744;28;20757;-74
2021/03/27 06:20:25;;;;;;;10.10;7.10;;;6.10;99.90;;;;;;5022450;28;20902;-73
2021/03/27 06:23:21;;;;;;;7.97;6.00;;;6.10;99.90;;;;;;4961826;28;20851;-74
2021/03/27 06:26:24;;;;;;;7.90;6.07;;;6.10;99.90;;;;;;4972381;28;20435;-74
2021/03/27 06:29:27;;;;;;;7.30;5.60;;;6.10;99.90;;;;;;5017484;28;20473;-74
2021/03/27 06:32:22;;;;;;;8.07;5.60;;;6.20;99.90;;;;;;5022259;28;20428;-74
2021/03/27 06:35:06;;;;;;;7.00;6.03;;;6.20;99.90;;;;;;5021810;28;20444;-74
2021/03/27 06:37:56;;;;;;;7.93;6.13;;;6.20;99.90;;;;;;5022903;28;20409;-74
2021/03/27 06:40:22;;;;;;;7.87;5.70;;;6.20;99.90;;;;;;5020008;28;20457;-73
2021/03/27 06:43:22;;;;;;;8.10;6.67;;;6.20;99.90;;;;;;5022173;28;20905;-74
2021/03/27 06:46:26;;;;;;;7.77;5.40;;;6.10;99.90;;;;;;5020009;28;20177;-74
2021/03/27 06:49:25;;;;;;;7.97;6.60;;;6.20;99.90;;;;;;5019725;28;20448;-74
2021/03/27 06:52:28;;;;;;;7.03;5.80;;;6.30;99.90;;;;;;5020279;28;20436;-75
2021/03/27 06:55:36;;;;;;;8.93;5.53;;;6.40;99.90;;;;;;5019641;28;20757;-75
2021/03/27 06:58:16;;;;;;;8.27;6.20;;;6.40;99.90;;;;;;4972713;28;20452;-75
2021/03/27 07:00:48;;;;;;;11.60;6.80;;;6.40;99.90;;;;;;5021096;28;20493;-75
2021/03/27 07:03:54;;;;;;;8.30;6.13;;;6.40;99.90;;;;;;5022705;28;20451;-77
2021/03/27 07:06:23;;;;;;;7.20;6.07;;;6.40;99.90;;;;;;5024866;28;20421;-75
2021/03/27 07:09:01;;;;;;;8.07;6.17;;;6.30;99.90;;;;;;5020119;28;20776;-76
2021/03/27 07:12:01;;;;;;;8.00;6.13;;;6.40;99.90;;;;;;5023739;28;20495;-76
2021/03/27 07:14:54;;;;;;;12.70;7.60;;;6.40;99.90;;;;;;5021702;28;20932;-75
2021/03/27 07:17:47;;;;;;;10.90;7.37;;;6.50;99.90;;;;;;5027427;28;20966;-76
2021/03/27 07:20:34;;;;;;;15.37;9.00;;;6.50;99.90;;;;;;5029689;28;20448;-76
2021/03/27 07:23:15;;;;;;;9.70;7.20;;;6.60;99.90;;;;;;5027480;28;20928;-76
2021/03/27 07:25:48;;;;;;;8.63;6.90;;;6.70;99.90;;;;;;5021847;28;20764;-76
2021/03/27 07:28:19;;;;;;;11.77;8.27;;;6.80;99.90;;;;;;5028309;28;20440;-77
2021/03/27 07:31:13;;;;;;;14.10;8.50;;;6.80;99.90;;;;;;5029127;28;20436;-76
2021/03/27 07:34:13;;;;;;;12.40;7.80;;;6.80;99.90;;;;;;5028263;28;20441;-76
2021/03/27 07:37:01;;;;;;;9.30;7.17;;;6.90;99.90;;;;;;5024117;28;20425;-75
2021/03/27 07:40:04;;;;;;;14.50;7.87;;;6.90;99.90;;;;;;5019486;28;21185;-75
2021/03/27 07:42:44;;;;;;;10.50;7.97;;;6.80;99.90;;;;;;5021824;28;20779;-76
2021/03/27 07:45:28;;;;;;;12.40;7.90;;;6.80;99.90;;;;;;5004780;28;20439;-76
2021/03/27 07:48:31;;;;;;;12.43;8.57;;;6.80;99.90;;;;;;5020630;28;20440;-77
2021/03/27 07:51:00;;;;;;;15.23;8.67;;;6.90;99.90;;;;;;5004506;28;20925;-75
2021/03/27 07:53:47;;;;;;;12.17;8.13;;;6.80;99.90;;;;;;5023455;28;20441;-76
2021/03/27 07:56:58;;;;;;;13.87;8.80;;;6.90;99.90;;;;;;5026029;28;20429;-77
2021/03/27 08:00:00;;;;;;;15.20;9.07;;;6.90;99.90;;;;;;4997899;28;20428;-77
2021/03/27 08:02:48;;;;;;;19.27;9.67;;;7.00;99.90;;;;;;5004582;28;20449;-77
2021/03/27 08:05:44;;;;;;;9.80;7.63;;;7.10;99.90;;;;;;5027685;28;20562;-74
2021/03/27 08:08:52;;;;;;;17.20;8.90;;;7.20;99.90;;;;;;5024852;28;20463;-74
2021/03/27 08:11:55;;;;;;;13.27;8.37;;;7.40;99.90;;;;;;5023778;28;20456;-81
2021/03/27 08:15:02;;;;;;;12.17;7.83;;;7.50;99.90;;;;;;5031582;28;20832;-75
2021/03/27 08:18:07;;;;;;;9.50;7.60;;;7.70;99.90;;;;;;5030687;28;20816;-75
2021/03/27 08:20:40;;;;;;;15.90;5.87;;;7.70;99.90;;;;;;5020133;28;20514;-77
2021/03/27 08:23:27;;;;;;;10.10;7.10;;;7.60;99.90;;;;;;5027744;28;20424;-75
2021/03/27 08:26:12;;;;;;;13.00;7.43;;;7.50;99.90;;;;;;5024588;28;20421;-74
2021/03/27 08:28:43;;;;;;;8.80;6.40;;;7.50;99.90;;;;;;5020141;28;20432;-77
2021/03/27 08:31:37;;;;;;;9.63;5.77;;;7.60;99.90;;;;;;5026245;28;20780;-74
2021/03/27 08:34:40;;;;;;;6.00;5.43;;;7.70;99.90;;;;;;5017978;28;20447;-68
2021/03/27 08:37:25;;;;;;;7.10;5.53;;;7.90;99.90;;;;;;5020286;28;20471;-67
2021/03/27 08:40:14;;;;;;;9.93;6.33;;;7.90;99.90;;;;;;5013835;28;20747;-74
2021/03/27 08:42:49;;;;;;;24.40;7.07;;;7.90;99.90;;;;;;5026092;28;20476;-74
2021/03/27 08:45:30;;;;;;;11.63;6.10;;;7.80;99.90;;;;;;5023076;28;20436;-73
2021/03/27 08:48:19;;;;;;;8.90;6.30;;;7.80;99.90;;;;;;5006456;28;20480;-73
2021/03/27 08:50:57;;;;;;;7.50;5.50;;;7.70;99.90;;;;;;5023076;28;20424;-72
2021/03/27 08:53:37;;;;;;;8.27;5.93;;;7.60;99.90;;;;;;5020029;28;20452;-72
2021/03/27 08:56:26;;;;;;;7.30;5.77;;;7.60;99.90;;;;;;5016419;28;20440;-72
2021/03/27 08:59:08;;;;;;;13.27;6.20;;;7.40;99.90;;;;;;5006134;28;20896;-72
2021/03/27 09:01:56;;;;;;;9.50;6.03;;;7.30;99.90;;;;;;5020123;28;20943;-72
2021/03/27 09:04:50;;;;;;;6.37;4.13;;;7.30;99.90;;;;;;5020084;28;21016;-72
2021/03/27 09:07:29;;;;;;;22.70;5.70;;;7.30;99.90;;;;;;5001464;28;20439;-73
2021/03/27 09:10:16;;;;;;;8.20;5.70;;;7.30;99.90;;;;;;5017200;28;20465;-71
2021/03/27 09:12:59;;;;;;;7.50;5.17;;;7.30;99.90;;;;;;5021623;28;20501;-72
2021/03/27 09:15:55;;;;;;;7.00;5.37;;;7.30;99.90;;;;;;5022148;28;20426;-72
2021/03/27 09:18:33;;;;;;;8.70;5.60;;;7.40;99.90;;;;;;5021648;28;20422;-72
2021/03/27 09:21:35;;;;;;;9.77;7.20;;;7.40;99.90;;;;;;5021594;28;20460;-73
2021/03/27 09:24:13;;;;;;;11.23;5.97;;;7.40;99.90;;;;;;4998724;28;20924;-72
2021/03/27 09:27:13;;;;;;;9.67;5.60;;;7.50;99.90;;;;;;5023229;28;20449;-72
2021/03/27 09:30:14;;;;;;;10.43;5.93;;;7.40;99.90;;;;;;5021383;28;20430;-73
2021/03/27 09:32:52;;;;;;;6.63;5.93;;;7.60;99.90;;;;;;4991746;28;20472;-72
2021/03/27 09:35:40;;;;;;;6.97;6.20;;;7.60;99.90;;;;;;5021545;28;20441;-72
2021/03/27 09:38:24;;;;;;;12.40;6.43;;;7.60;99.90;;;;;;5022911;28;20906;-72
2021/03/27 09:41:23;;;;;;;9.60;6.23;;;7.60;99.90;;;;;;5023971;28;20459;-72
2021/03/27 09:44:25;;;;;;;8.27;6.30;;;7.70;99.90;;;;;;5019439;28;20567;-72
2021/03/27 09:47:21;;;;;;;10.77;6.27;;;7.90;99.90;;;;;;4944946;28;20472;-72
2021/03/27 09:50:03;;;;;;;10.40;5.60;;;7.90;99.90;;;;;;5002633;28;20669;-71
2021/03/27 09:52:53;;;;;;;9.43;5.57;;;7.90;99.90;;;;;;5020446;28;20428;-74
2021/03/27 09:55:32;;;;;;;7.10;5.27;;;7.90;99.90;;;;;;5020819;28;20910;-74
2021/03/27 09:58:36;;;;;;;8.33;5.73;;;7.90;99.90;;;;;;5020835;28;20768;-74
2021/03/27 10:01:21;;;;;;;7.57;4.90;;;8.00;99.90;;;;;;5007753;28;20548;-73
2021/03/27 10:04:16;;;;;;;6.57;5.97;;;8.00;99.90;;;;;;5021019;28;20438;-74
2021/03/27 10:06:55;;;;;;;9.33;8.03;;;8.20;99.90;;;;;;5007594;28;20433;-74
2021/03/27 10:09:58;;;;;;;6.10;5.47;;;8.50;99.90;;;;;;5020085;28;20432;-74
2021/03/27 10:12:28;;;;;;;9.33;5.40;;;8.70;99.90;;;;;;5020867;28;20440;-73
2021/03/27 10:15:24;;;;;;;6.60;4.10;;;8.20;99.90;;;;;;5020791;28;20429;-73
2021/03/27 10:17:55;;;;;;;7.40;4.00;;;7.80;99.90;;;;;;5021732;28;20447;-73
2021/03/27 10:20:50;;;;;;;4.97;3.90;;;7.30;99.90;;;;;;5021883;28;20471;-74
2021/03/27 10:23:35;;;;;;;3.60;3.40;;;7.00;99.90;;;;;;5011373;28;20476;-73
2021/03/27 10:26:16;;;;;;;4.63;2.90;;;6.80;99.90;;;;;;5020985;28;21808;-73
2021/03/27 10:32:35;;;;;;;5.10;2.60;;;6.50;99.90;;;;;;5022772;28;20512;-73
2021/03/27 10:35:34;;;;;;;2.90;2.70;;;6.40;99.90;;;;;;5004829;28;20440;-73
2021/03/27 10:38:21;;;;;;;4.50;3.30;;;6.40;99.90;;;;;;5022116;28;20769;-73
2021/03/27 10:41:32;;;;;;;4.80;2.40;;;6.60;99.90;;;;;;5021482;28;20795;-73
2021/03/27 10:44:26;;;;;;;4.10;2.73;;;6.60;99.90;;;;;;5022352;28;20519;-73
2021/03/27 10:47:00;;;;;;;6.70;3.23;;;6.70;99.90;;;;;;5020062;28;20429;-74
2021/03/27 10:49:28;;;;;;;7.00;2.67;;;6.60;99.90;;;;;;5003721;28;20791;-73
2021/03/27 10:52:10;;;;;;;9.20;2.83;;;6.50;99.90;;;;;;5020503;28;20429;-73
2021/03/27 10:55:02;;;;;;;3.30;2.60;;;6.60;99.90;;;;;;5020882;28;20466;-72
2021/03/27 10:57:40;;;;;;;3.77;1.90;;;6.50;99.90;;;;;;5019220;28;20453;-73
2021/03/27 11:00:31;;;;;;;4.10;1.33;;;6.50;99.90;;;;;;5018639;28;20917;-73
2021/03/27 11:03:35;;;;;;;1.80;1.10;;;6.70;99.90;;;;;;4986253;28;20889;-73
2021/03/27 11:06:36;;;;;;;2.60;1.40;;;6.80;99.90;;;;;;4940613;29;20448;-74
2021/03/27 11:09:27;;;;;;;5.00;1.83;;;7.00;99.90;;;;;;5021265;28;20424;-74
2021/03/27 11:12:16;;;;;;;2.27;1.30;;;7.00;99.90;;;;;;5020503;28;20746;-73
2021/03/27 11:14:45;;;;;;;3.00;1.70;;;7.10;99.90;;;;;;5020942;28;20502;-73
2021/03/27 11:17:46;;;;;;;2.87;1.50;;;7.20;99.90;;;;;;5019437;28;20485;-73
2021/03/27 11:20:26;;;;;;;3.97;1.63;;;7.20;99.90;;;;;;5017492;28;20461;-73
2021/03/27 11:23:32;;;;;;;1.93;1.80;;;7.40;99.90;;;;;;5017129;28;20473;-73
2021/03/27 11:26:18;;;;;;;2.80;1.97;;;7.40;99.90;;;;;;5019354;28;20440;-74
2021/03/27 11:28:55;;;;;;;3.43;2.10;;;7.50;99.90;;;;;;5017929;28;20461;-73
2021/03/27 11:31:33;;;;;;;7.23;2.80;;;7.50;99.90;;;;;;5019492;28;20443;-73
2021/03/27 11:34:15;;;;;;;2.20;2.10;;;7.40;99.90;;;;;;5017631;28;20444;-73
2021/03/27 11:36:43;;;;;;;4.13;2.50;;;7.30;99.90;;;;;;5018393;28;20475;-73
2021/03/27 11:39:53;;;;;;;8.83;2.90;;;7.40;99.90;;;;;;5020036;28;20460;-73
2021/03/27 11:42:19;;;;;;;5.20;2.40;;;7.40;99.90;;;;;;5018801;28;20829;-74
2021/03/27 11:45:05;;;;;;;8.43;2.90;;;7.40;99.90;;;;;;5021172;28;20437;-73
2021/03/27 11:47:33;;;;;;;4.03;2.80;;;7.40;99.90;;;;;;5021385;28;20496;-72
2021/03/27 11:50:18;;;;;;;3.90;1.43;;;6.90;99.90;;;;;;5021423;28;20440;-72
2021/03/27 11:53:18;;;;;;;3.80;1.50;;;6.20;99.90;;;;;;5020502;28;20748;-73
2021/03/27 11:56:08;;;;;;;4.30;1.90;;;5.90;99.90;;;;;;5000798;28;20796;-72
2021/03/27 11:59:42;;;;;;;5.93;2.00;;;5.30;99.90;;;;;;5019647;28;22344;-73
2021/03/27 12:01:30;;;;;;;4.90;2.03;;;5.10;99.90;;;;;;5021217;28;20952;-73
2021/03/27 12:04:09;;;;;;;4.83;1.50;;;4.90;99.90;;;;;;5020998;28;20459;-73
2021/03/27 12:07:08;;;;;;;4.17;1.40;;;4.80;99.90;;;;;;5003269;28;20453;-73
2021/03/27 12:09:56;;;;;;;4.60;1.43;;;4.70;99.90;;;;;;5021438;28;20417;-73
2021/03/27 12:12:57;;;;;;;3.67;1.73;;;4.90;99.90;;;;;;5017036;28;20429;-74
2021/03/27 12:15:36;;;;;;;3.10;1.40;;;5.20;99.90;;;;;;5017329;28;20436;-74
2021/03/27 12:18:12;;;;;;;5.30;2.73;;;5.50;99.90;;;;;;5021463;28;20544;-74
2021/03/27 12:21:08;;;;;;;5.33;2.27;;;5.90;99.90;;;;;;5020984;28;20485;-75
2021/03/27 12:23:45;;;;;;;3.97;1.90;;;6.20;99.90;;;;;;5021155;28;20437;-75
2021/03/27 12:26:29;;;;;;;5.77;2.33;;;6.50;99.90;;;;;;5016973;28;20424;-75
2021/03/27 12:29:09;;;;;;;1.60;1.20;;;6.60;99.90;;;;;;5019213;28;20431;-75
2021/03/27 12:31:48;;;;;;;4.97;1.90;;;6.80;99.90;;;;;;5022780;28;20425;-75
2021/03/27 12:34:33;;;;;;;3.57;1.73;;;7.10;99.90;;;;;;5019905;28;20428;-75
2021/03/27 12:37:21;;;;;;;7.60;2.97;;;7.20;99.90;;;;;;5018772;28;20428;-75
2021/03/27 12:40:18;;;;;;;2.43;2.23;;;7.40;99.90;;;;;;5021740;28;20429;-75
2021/03/27 12:43:17;;;;;;;5.40;2.37;;;7.50;99.90;;;;;;5023207;28;20446;-76
2021/03/27 12:46:11;;;;;;;3.20;2.30;;;7.50;99.90;;;;;;5023329;28;20813;-75
2021/03/27 12:48:43;;;;;;;5.50;2.47;;;7.50;99.90;;;;;;5023657;28;20491;-74
2021/03/27 12:51:18;;;;;;;9.07;2.57;;;7.50;99.90;;;;;;5023291;28;20503;-75
2021/03/27 12:54:28;;;;;;;4.17;2.07;;;7.50;99.90;;;;;;5025965;28;20443;-74
2021/03/27 12:57:09;;;;;;;4.27;2.27;;;7.50;99.90;;;;;;5022130;28;20425;-73
2021/03/27 12:59:34;;;;;;;2.40;2.20;;;7.40;99.90;;;;;;5021740;28;21214;-73
2021/03/27 13:02:36;;;;;;;5.00;2.97;;;7.60;99.90;;;;;;5024452;28;20495;-73
2021/03/27 13:05:32;;;;;;;10.40;2.30;;;7.70;99.90;;;;;;5022345;28;20178;-73
2021/03/27 13:08:17;;;;;;;5.73;3.00;;;7.70;99.90;;;;;;5014840;28;20536;-74
2021/03/27 13:10:48;;;;;;;10.23;2.73;;;8.00;99.90;;;;;;5018415;28;20489;-73
2021/03/27 13:13:54;;;;;;;11.90;3.93;;;8.40;99.90;;;;;;5023986;28;20425;-74
2021/03/27 13:16:28;;;;;;;7.90;3.03;;;8.90;99.90;;;;;;5022819;28;20750;-73
2021/03/27 13:18:54;;;;;;;7.33;2.90;;;9.30;99.90;;;;;;5023943;28;20499;-73
2021/03/27 13:21:25;;;;;;;13.17;3.20;;;9.30;99.90;;;;;;5024978;28;20448;-73
2021/03/27 13:23:54;;;;;;;5.60;2.40;;;9.10;99.90;;;;;;5023339;28;20660;-72
2021/03/27 13:26:24;;;;;;;5.60;1.80;;;8.50;99.90;;;;;;5022634;28;20875;-72
2021/03/27 13:29:06;;;;;;;3.37;1.60;;;7.70;99.90;;;;;;5022859;28;20478;-72
2021/03/27 13:31:42;;;;;;;8.30;2.23;;;7.50;99.90;;;;;;5023441;28;20905;-72
2021/03/27 13:34:32;;;;;;;3.10;2.30;;;7.30;99.90;;;;;;5023574;28;20528;-72
2021/03/27 13:37:33;;;;;;;3.60;2.17;;;7.10;99.90;;;;;;5022845;28;20463;-71
2021/03/27 13:40:04;;;;;;;4.83;2.33;;;7.10;99.90;;;;;;5006458;28;20449;-72
2021/03/27 13:42:33;;;;;;;2.77;1.60;;;7.10;99.90;;;;;;5006127;28;20994;-72
2021/03/27 13:45:05;;;;;;;3.17;2.23;;;7.40;99.90;;;;;;5023297;28;21711;-72
2021/03/27 13:47:39;;;;;;;4.20;2.10;;;7.70;99.90;;;;;;5024614;28;21188;-71
2021/03/27 13:50:27;;;;;;;3.00;2.30;;;8.10;99.90;;;;;;5023071;28;20418;-71
2021/03/27 13:53:13;;;;;;;3.70;2.60;;;8.60;99.90;;;;;;5023269;28;20477;-72
2021/03/27 13:55:42;;;;;;;4.30;2.27;;;9.00;99.90;;;;;;5021019;28;20468;-72
2021/03/27 13:58:22;;;;;;;5.70;1.97;;;9.20;99.90;;;;;;5007598;28;20414;-72
2021/03/27 14:01:06;;;;;;;5.10;1.53;;;9.40;99.90;;;;;;5021934;28;20464;-71
2021/03/27 14:04:07;;;;;;;3.47;1.90;;;9.60;99.90;;;;;;5023080;28;20420;-72
2021/03/27 14:06:40;;;;;;;4.97;2.70;;;9.80;99.90;;;;;;5023015;28;20504;-72
2021/03/27 14:09:07;;;;;;;2.57;2.37;;;9.80;99.90;;;;;;5023737;28;20431;-72
2021/03/27 14:11:45;;;;;;;5.93;2.50;;;9.90;99.90;;;;;;5023195;28;20936;-72
2021/03/27 14:14:18;;;;;;;5.40;2.23;;;9.60;99.90;;;;;;5021185;28;21072;-72
2021/03/27 14:17:02;;;;;;;2.63;2.00;;;9.50;99.90;;;;;;5022686;28;20429;-74
2021/03/27 14:19:40;;;;;;;5.13;1.97;;;9.40;99.90;;;;;;5022241;28;20448;-72
2021/03/27 14:22:33;;;;;;;7.10;2.03;;;9.10;99.90;;;;;;5019281;28;20448;-72
2021/03/27 14:25:15;;;;;;;4.97;2.40;;;8.90;99.90;;;;;;5019979;28;20516;-68
2021/03/27 14:28:15;;;;;;;5.50;1.50;;;8.80;99.90;;;;;;5022216;28;20270;-71
2021/03/27 14:30:50;;;;;;;3.03;1.30;;;7.60;99.90;;;;;;5021334;28;20429;-70
2021/03/27 14:33:54;;;;;;;1.93;1.20;;;6.90;99.90;;;;;;5022176;28;20427;-70
2021/03/27 14:36:31;;;;;;;8.63;1.83;;;6.30;99.90;;;;;;5018829;28;20502;-70